Monday, April 23, 2018, 1:39 AM GMT
Back to Local

CWNC, Cobourg, Ont.

Location: , , Canada Lat: 43.95
Local Time: 1:39 AM GMT ( 1:39 GMT) Lon: -78.167
Time Zone: GMT Elev: 255 ft

Show me the last for .
Show Coded

Time T Td Feel RH Dir Speed Gust Alt SLP Vis Weather Sky Remarks
2018-04-23 01:00 40 28 38 62 90° 3 - - 30.39 0 None
2018-04-23 00:00 41 31 - 66 130° 2 - - 30.37 0 None
2018-04-22 23:00 41 33 39 73 150° 3 - - 30.37 0 None
2018-04-22 22:00 48 25 46 41 270° 5 - - 30.37 0 None
2018-04-22 21:00 45 29 44 52 260° 3 - - 30.37 0 None
2018-04-22 20:00 46 28 45 49 260° 3 - - 30.38 0 None
2018-04-22 19:00 44 33 41 66 260° 5 - - 30.40 0 None
2018-04-22 18:00 43 34 40 69 250° 5 - - 30.42 0 None
2018-04-22 17:00 44 35 40 68 270° 7 - - 30.43 0 None
2018-04-22 16:00 44 32 39 62 270° 7 - - 30.45 0 None
2018-04-22 15:00 42 31 37 64 260° 7 - - 30.44 0 None
2018-04-22 14:00 43 32 38 63 240° 8 - - 30.44 0 None
2018-04-22 13:00 42 29 39 59 250° 6 - - 30.43 0 None
2018-04-22 12:00 41 31 37 66 250° 6 - - 30.42 0 None
2018-04-22 11:00 41 17 37 38 350° 6 - - 30.40 0 None
2018-04-22 10:00 39 18 34 42 10° 7 - - 30.38 0 None
2018-04-22 09:00 40 18 35 41 10° 7 - - 30.37 0 None
2018-04-22 08:00 38 19 33 45 10° 7 - - 30.37 0 None
2018-04-22 07:00 42 19 36 40 360° 9 - - 30.38 0 None
2018-04-22 06:00 43 19 37 37 360° 9 - - 30.38 0 None
2018-04-22 05:00 43 18 38 35 360° 8 - - 30.39 0 None
2018-04-22 04:00 44 18 40 34 350° 8 - - 30.38 0 None
2018-04-22 03:00 43 22 41 42 340° 5 - - 30.38 0 None
2018-04-22 02:00 45 20 43 35 340° 5 - - 30.38 0 None

Support USWX by starting your Amazon purchase here.